Eizo Maru — JD2944 — position and weather

sailwx.info

Track history (hours):
 
Tides and Currents Weather Stations Pressure Air Temp Water Temp Dewpoint Dewpoint Depression Visibility Wind Speed Wind Dir Waves Ship Positions

Eizo Maru

Last reported at 2014-Oct-31 10:12 UTC. Time now 2014-Oct-31 20:54 UTC.
Position N 35°15' E 139°46'.

Length 80 m; draft 5.3 m.

Type: Tanker. MMSI: 431000976.

Date/timePositionNaut miles runAvg speedWind from/ knotsBaromVisibWave heightAir tempDewpointWater temp
2014-Oct-31 10:12N 35°15' E 139°46'812.5
2014-Oct-31 09:33N 35°23' E 139°42'10 0.8
2014-Oct-30 20:29N 35°29' E 139°52'1112.4
2014-Oct-30 19:33N 35°20' E 139°44'24711.1
2014-Oct-29 21:19N 34°00' E 134°59'1114.1
2014-Oct-29 20:32N 34°11' E 134°58'1513.6
2014-Oct-29 19:25N 34°25' E 135°06'1214.4
2014-Oct-29 18:33N 34°32' E 135°19'4 0.2
2014-Oct-29 03:33N 34°32' E 135°23'1313.1
2014-Oct-29 02:33N 34°26' E 135°10'1413.6
2014-Oct-29 01:33N 34°15' E 134°60'1613.8
2014-Oct-29 00:25N 33°59' E 135°01'  
2014-Oct-26 15:12N 35°14' E 139°46'812.2
2014-Oct-26 14:33N 35°21' E 139°42'10 9.7
2014-Oct-26 13:33N 35°31' E 139°46'0 0.0
2014-Oct-26 09:33N 35°31' E 139°46'2 1.7
2014-Oct-26 08:28N 35°29' E 139°48'0 0.1
2014-Oct-26 07:19N 35°29' E 139°48'0 0.0
2014-Oct-26 02:19N 35°29' E 139°48'0 0.0
2014-Oct-26 01:31N 35°29' E 139°48'0 0.0
2014-Oct-26 00:28N 35°29' E 139°48'0 0.0
2014-Oct-25 23:19N 35°29' E 139°48'0 0.0
2014-Oct-25 22:31N 35°29' E 139°48'0 0.0
2014-Oct-25 20:25N 35°29' E 139°48'0 0.1
2014-Oct-25 19:31N 35°29' E 139°48'0 0.1
2014-Oct-25 18:28N 35°29' E 139°48'0 0.0
2014-Oct-25 16:22N 35°29' E 139°48'0 0.0
2014-Oct-25 15:07N 35°29' E 139°48'0 0.0
2014-Oct-25 14:25N 35°29' E 139°48'0 0.0
2014-Oct-25 13:31N 35°29' E 139°48'0 0.0
2014-Oct-25 12:31N 35°29' E 139°48'0 0.0
2014-Oct-25 11:31N 35°29' E 139°48'0 0.0
2014-Oct-25 03:30N 35°29' E 139°48'1111.7
2014-Oct-25 02:33N 35°18' E 139°44'1211.8
2014-Oct-25 01:32N 35°06' E 139°45'8 0.2
2014-Oct-23 03:19N 35°15' E 139°46'912.1
2014-Oct-23 02:33N 35°23' E 139°42'8 1.9
2014-Oct-22 22:20N 35°31' E 139°46'2 2.5
2014-Oct-22 21:31N 35°29' E 139°48'0 0.0
2014-Oct-22 20:28N 35°29' E 139°48'0 0.0
2014-Oct-22 19:34N 35°29' E 139°48'0 0.0
2014-Oct-22 18:31N 35°29' E 139°48'0 0.0
2014-Oct-22 17:34N 35°29' E 139°48'0 0.0
2014-Oct-22 16:34N 35°29' E 139°48'0 0.0
2014-Oct-22 15:34N 35°29' E 139°48'0 0.0
2014-Oct-22 14:34N 35°29' E 139°48'1 1.4
2014-Oct-22 13:33N 35°28' E 139°47'1211.6
2014-Oct-22 12:33N 35°16' E 139°46'  
Track history (hours):
 
Tides and Currents Weather Stations Pressure Air Temp Water Temp Dewpoint Dewpoint Depression Visibility Wind Speed Wind Dir Waves Ship Positions

Eizo Maru

Last reported at 2014-Oct-31 10:12 UTC. Time now 2014-Oct-31 20:54 UTC.
Position N 35°15' E 139°46'.

Length 80 m; draft 5.3 m.

Type: Tanker. MMSI: 431000976.

Date/timePositionNaut miles runAvg speedWind from/ knotsBaromVisibWave heightAir tempDewpointWater temp
2014-Oct-31 10:12N 35°15' E 139°46'812.5
2014-Oct-31 09:33N 35°23' E 139°42'10 0.8
2014-Oct-30 20:29N 35°29' E 139°52'1112.4
2014-Oct-30 19:33N 35°20' E 139°44'24711.1
2014-Oct-29 21:19N 34°00' E 134°59'1114.1
2014-Oct-29 20:32N 34°11' E 134°58'1513.6
2014-Oct-29 19:25N 34°25' E 135°06'1214.4
2014-Oct-29 18:33N 34°32' E 135°19'4 0.2
2014-Oct-29 03:33N 34°32' E 135°23'1313.1
2014-Oct-29 02:33N 34°26' E 135°10'1413.6
2014-Oct-29 01:33N 34°15' E 134°60'1613.8
2014-Oct-29 00:25N 33°59' E 135°01'  
2014-Oct-26 15:12N 35°14' E 139°46'812.2
2014-Oct-26 14:33N 35°21' E 139°42'10 9.7
2014-Oct-26 13:33N 35°31' E 139°46'0 0.0
2014-Oct-26 09:33N 35°31' E 139°46'2 1.7
2014-Oct-26 08:28N 35°29' E 139°48'0 0.1
2014-Oct-26 07:19N 35°29' E 139°48'0 0.0
2014-Oct-26 02:19N 35°29' E 139°48'0 0.0
2014-Oct-26 01:31N 35°29' E 139°48'0 0.0
2014-Oct-26 00:28N 35°29' E 139°48'0 0.0
2014-Oct-25 23:19N 35°29' E 139°48'0 0.0
2014-Oct-25 22:31N 35°29' E 139°48'0 0.0
2014-Oct-25 20:25N 35°29' E 139°48'0 0.1
2014-Oct-25 19:31N 35°29' E 139°48'0 0.1
2014-Oct-25 18:28N 35°29' E 139°48'0 0.0
2014-Oct-25 16:22N 35°29' E 139°48'0 0.0
2014-Oct-25 15:07N 35°29' E 139°48'0 0.0
2014-Oct-25 14:25N 35°29' E 139°48'0 0.0
2014-Oct-25 13:31N 35°29' E 139°48'0 0.0
2014-Oct-25 12:31N 35°29' E 139°48'0 0.0
2014-Oct-25 11:31N 35°29' E 139°48'0 0.0
2014-Oct-25 03:30N 35°29' E 139°48'1111.7
2014-Oct-25 02:33N 35°18' E 139°44'1211.8
2014-Oct-25 01:32N 35°06' E 139°45'8 0.2
2014-Oct-23 03:19N 35°15' E 139°46'912.1
2014-Oct-23 02:33N 35°23' E 139°42'8 1.9
2014-Oct-22 22:20N 35°31' E 139°46'2 2.5
2014-Oct-22 21:31N 35°29' E 139°48'0 0.0
2014-Oct-22 20:28N 35°29' E 139°48'0 0.0
2014-Oct-22 19:34N 35°29' E 139°48'0 0.0
2014-Oct-22 18:31N 35°29' E 139°48'0 0.0
2014-Oct-22 17:34N 35°29' E 139°48'0 0.0
2014-Oct-22 16:34N 35°29' E 139°48'0 0.0
2014-Oct-22 15:34N 35°29' E 139°48'0 0.0
2014-Oct-22 14:34N 35°29' E 139°48'1 1.4
2014-Oct-22 13:33N 35°28' E 139°47'1211.6
2014-Oct-22 12:33N 35°16' E 139°46'  

Dump ship's entire track history